This is the latest recevied weather packets stored in our database for station/object CE3MXM-13. If no packets are shown the sender has not sent any weather packets the latest 10 day(s).
| Time | Temp. | Humidity | Pressure | Rain* | Wind** | Luminosity | Snow |
|---|---|---|---|---|---|---|---|
| 1777250835 | 11.67° C | 72% | 1014.7 hPa | - | - | - | - |
| 1777250534 | 11.67° C | 72% | 1014.7 hPa | - | - | - | - |
| 1777250235 | 11.11° C | 73% | 1014.7 hPa | - | - | - | - |
| 1777249935 | 11.11° C | 73% | 1014.6 hPa | - | - | - | - |
| 1777249634 | 11.11° C | 73% | 1014.6 hPa | - | - | - | - |
| 1777249334 | 11.11° C | 72% | 1014.6 hPa | - | - | - | - |
| 1777249034 | 11.67° C | 70% | 1014.7 hPa | - | - | - | - |
| 1777248734 | 11.67° C | 69% | 1014.6 hPa | - | - | - | - |
| 1777248434 | 11.67° C | 68% | 1014.4 hPa | - | - | - | - |
| 1777248134 | 12.22° C | 67% | 1014.3 hPa | - | - | - | - |
| 1777247834 | 12.22° C | 66% | 1014.3 hPa | - | - | - | - |
| 1777247534 | 12.78° C | 63% | 1014.4 hPa | - | - | - | - |
| 1777247234 | 13.33° C | 62% | 1014.4 hPa | - | - | - | - |
| 1777246933 | 13.89° C | 60% | 1014.2 hPa | - | - | - | - |
| 1777246634 | 13.89° C | 59% | 1014.1 hPa | - | - | - | - |
| 1777246333 | 13.89° C | 59% | 1014.1 hPa | - | - | - | - |
| 1777246034 | 13.89° C | 60% | 1014.2 hPa | - | - | - | - |
| 1777245733 | 13.33° C | 60% | 1014.3 hPa | - | - | - | - |
| 1777245433 | 13.33° C | 61% | 1014.1 hPa | - | - | - | - |
| 1777245133 | 13.33° C | 61% | 1014.3 hPa | - | - | - | - |
| 1777244833 | 13.33° C | 61% | 1014.4 hPa | - | - | - | - |
| 1777244533 | 12.78° C | 63% | 1014.3 hPa | - | - | - | - |
| 1777244232 | 12.78° C | 62% | 1014.6 hPa | - | - | - | - |
| 1777243932 | 12.78° C | 62% | 1014.5 hPa | - | - | - | - |
| 1777243632 | 13.33° C | 62% | 1014.6 hPa | - | - | - | - |
* Rain since midnight (hover to see other rain measurements)
** Current wind speed in m/s (hover to see current wind gust speed)